Time;durP1;ratioP1;P1;durP2;ratioP2;P2;SDS_P1;SDS_P2;PMS_P1;PMS_P2;Temp;Humidity;BMP_temperature;BMP_pressure;BME280_temperature;BME280_humidity;BME280_pressure;Samples;Min_cycle;Max_cycle;Signal;HPM_P1;HPM_P2
2022/06/25 00:01:11;;;;;;;2.10;2.00;;;16.60;99.90;;;;;;5024477;28;20207;-73
2022/06/25 00:03:38;;;;;;;3.25;2.00;;;16.70;99.90;;;;;;5046338;28;20201;-73
2022/06/25 00:06:04;;;;;;;2.40;2.30;;;16.60;99.90;;;;;;5032697;28;20172;-74
2022/06/25 00:08:30;;;;;;;1.80;1.70;;;16.60;99.90;;;;;;5024224;28;20173;-74
2022/06/25 00:10:56;;;;;;;2.47;2.38;;;16.60;99.90;;;;;;5013290;28;20177;-74
2022/06/25 00:13:22;;;;;;;2.25;2.15;;;16.60;99.90;;;;;;5012872;28;20271;-74
2022/06/25 00:15:48;;;;;;;4.97;2.30;;;16.50;99.90;;;;;;5013083;28;20637;-74
2022/06/25 00:18:14;;;;;;;2.28;2.13;;;16.40;99.90;;;;;;5012414;28;20176;-75
2022/06/25 00:20:41;;;;;;;2.45;2.30;;;16.50;99.90;;;;;;5029014;28;20213;-74
2022/06/25 00:23:07;;;;;;;3.08;2.78;;;16.40;99.90;;;;;;5030771;28;20192;-74
2022/06/25 00:25:33;;;;;;;2.53;2.40;;;16.40;99.90;;;;;;5031053;28;20169;-73
2022/06/25 00:27:58;;;;;;;2.78;2.50;;;16.40;99.90;;;;;;5018696;28;20648;-74
2022/06/25 00:30:24;;;;;;;2.13;2.03;;;16.40;99.90;;;;;;5012837;28;20228;-73
2022/06/25 00:32:50;;;;;;;2.53;2.33;;;16.40;99.90;;;;;;5028056;28;20561;-74
2022/06/25 00:35:15;;;;;;;2.80;2.65;;;16.40;99.90;;;;;;5039524;28;20199;-73
2022/06/25 00:37:41;;;;;;;2.47;1.95;;;16.40;99.90;;;;;;5035949;28;20187;-73
2022/06/25 00:40:08;;;;;;;3.20;2.40;;;16.30;99.90;;;;;;5032113;28;20204;-73
2022/06/25 00:42:34;;;;;;;2.50;2.40;;;16.30;99.90;;;;;;5041079;28;20626;-73
2022/06/25 00:45:00;;;;;;;3.85;2.83;;;16.30;99.90;;;;;;5036049;28;20189;-74
2022/06/25 00:47:26;;;;;;;2.40;2.30;;;16.30;99.90;;;;;;5038395;28;20181;-74
2022/06/25 00:49:52;;;;;;;2.22;2.03;;;16.30;99.90;;;;;;5052362;28;20179;-73
2022/06/25 00:52:20;;;;;;;2.10;2.00;;;16.40;99.90;;;;;;5050880;28;20635;-73
2022/06/25 00:54:54;;;;;;;2.10;2.05;;;16.30;99.90;;;;;;5012413;28;20177;-73
2022/06/25 00:57:26;;;;;;;2.20;2.10;;;16.30;99.90;;;;;;5036225;28;20689;-73
2022/06/25 00:59:56;;;;;;;1.92;1.92;;;16.30;99.90;;;;;;5011016;28;20169;-73
2022/06/25 01:02:22;;;;;;;1.88;1.80;;;16.30;99.90;;;;;;5016857;28;20186;-73
2022/06/25 01:04:48;;;;;;;1.70;1.67;;;16.30;99.90;;;;;;5012252;28;20180;-74
2022/06/25 01:07:14;;;;;;;1.80;1.70;;;16.20;99.90;;;;;;5012165;28;20172;-74
2022/06/25 01:09:40;;;;;;;2.03;1.80;;;16.20;99.90;;;;;;5019396;28;20186;-74
2022/06/25 01:12:06;;;;;;;2.28;2.17;;;16.20;99.90;;;;;;5038753;28;20180;-73
2022/06/25 01:14:32;;;;;;;2.33;2.22;;;16.20;99.90;;;;;;5047999;28;20200;-74
2022/06/25 01:16:58;;;;;;;1.92;1.80;;;16.20;99.90;;;;;;5044353;28;20547;-74
2022/06/25 01:19:24;;;;;;;2.92;1.63;;;16.20;99.90;;;;;;5047800;28;20588;-74
2022/06/25 01:21:49;;;;;;;1.90;1.80;;;16.10;99.90;;;;;;5023972;28;20213;-74
2022/06/25 01:24:15;;;;;;;1.83;1.77;;;16.20;99.90;;;;;;5013103;28;20593;-75
2022/06/25 01:26:41;;;;;;;1.60;1.55;;;16.10;99.90;;;;;;5015808;28;20176;-72
2022/06/25 01:29:08;;;;;;;2.13;2.03;;;16.10;99.90;;;;;;5015538;28;20165;-72
2022/06/25 01:31:35;;;;;;;1.88;1.77;;;16.20;99.90;;;;;;5024963;28;20192;-73
2022/06/25 01:34:01;;;;;;;1.70;1.70;;;16.20;99.90;;;;;;5046690;28;20188;-73
2022/06/25 01:36:27;;;;;;;2.13;2.00;;;16.10;99.90;;;;;;5055165;28;20175;-73
2022/06/25 01:38:53;;;;;;;2.03;1.92;;;16.10;99.90;;;;;;5054518;28;20716;-73
2022/06/25 01:41:19;;;;;;;2.17;2.08;;;16.10;99.90;;;;;;5016036;28;20233;-73
2022/06/25 01:43:45;;;;;;;2.47;1.70;;;16.10;99.90;;;;;;5017202;28;20193;-72
2022/06/25 01:46:11;;;;;;;2.08;1.98;;;16.00;99.90;;;;;;5035099;28;20193;-74
2022/06/25 01:48:37;;;;;;;1.83;1.80;;;16.10;99.90;;;;;;5030389;28;20592;-73
2022/06/25 01:51:03;;;;;;;1.45;1.42;;;16.10;99.90;;;;;;5023130;28;20188;-73
2022/06/25 01:53:29;;;;;;;1.90;1.80;;;16.10;99.90;;;;;;5041623;28;20245;-73
2022/06/25 01:55:55;;;;;;;2.28;1.98;;;16.10;99.90;;;;;;5047192;28;20210;-72
2022/06/25 01:58:20;;;;;;;2.22;2.03;;;16.10;99.90;;;;;;5038253;28;20460;-72
2022/06/25 02:00:46;;;;;;;1.83;1.63;;;16.10;99.90;;;;;;5034562;28;20204;-72
2022/06/25 02:03:14;;;;;;;2.33;2.00;;;16.00;99.90;;;;;;5034352;28;20189;-72
2022/06/25 02:05:59;;;;;;;1.98;1.70;;;16.00;99.90;;;;;;5035254;28;20644;-72
2022/06/25 02:08:30;;;;;;;1.60;1.60;;;16.10;99.90;;;;;;5039843;28;20298;-72
2022/06/25 02:10:56;;;;;;;1.85;1.75;;;16.10;99.90;;;;;;5034723;28;20175;-72
2022/06/25 02:13:23;;;;;;;2.05;1.75;;;16.10;99.90;;;;;;5033835;28;20266;-72
2022/06/25 02:15:49;;;;;;;2.88;1.73;;;16.10;99.90;;;;;;5015230;28;20575;-72
2022/06/25 02:18:15;;;;;;;1.98;1.88;;;16.10;99.90;;;;;;5014784;28;20166;-72
2022/06/25 02:20:42;;;;;;;1.90;1.80;;;16.10;99.90;;;;;;5014962;28;20613;-71
2022/06/25 02:23:09;;;;;;;2.05;1.90;;;16.20;99.90;;;;;;5014092;28;20252;-73
2022/06/25 02:25:34;;;;;;;1.90;1.80;;;16.10;99.90;;;;;;5014818;28;20540;-72
2022/06/25 02:28:00;;;;;;;2.45;2.00;;;16.20;99.90;;;;;;5019093;28;20236;-73
2022/06/25 02:30:26;;;;;;;2.28;2.17;;;16.10;99.90;;;;;;5014500;28;20204;-72
2022/06/25 02:32:51;;;;;;;2.20;2.10;;;16.20;99.90;;;;;;5013914;28;20208;-72
2022/06/25 02:35:17;;;;;;;2.10;1.75;;;16.10;99.90;;;;;;5013389;28;20703;-72
2022/06/25 02:37:43;;;;;;;1.67;1.63;;;16.10;99.90;;;;;;5014110;28;20176;-72
2022/06/25 02:40:09;;;;;;;1.92;1.83;;;16.10;99.90;;;;;;5014159;28;20197;-72
2022/06/25 02:42:35;;;;;;;2.00;1.90;;;16.10;99.90;;;;;;5026504;28;20675;-72
2022/06/25 02:45:02;;;;;;;2.15;2.05;;;16.20;99.90;;;;;;5033985;28;20191;-72
2022/06/25 02:47:28;;;;;;;2.42;2.22;;;16.20;99.90;;;;;;5034192;28;20260;-72
2022/06/25 02:49:53;;;;;;;1.95;1.85;;;16.20;99.90;;;;;;5024673;28;20268;-73
2022/06/25 02:52:19;;;;;;;1.80;1.70;;;16.20;99.90;;;;;;5013766;28;20623;-72
2022/06/25 02:54:44;;;;;;;2.42;2.25;;;16.20;99.90;;;;;;5014029;28;20172;-73
2022/06/25 02:59:54;;;;;;;2.25;2.15;;;16.20;99.90;;;;;;5029581;28;20192;-73
2022/06/25 03:02:20;;;;;;;2.38;2.28;;;16.30;99.90;;;;;;5013490;28;20173;-72
2022/06/25 03:04:46;;;;;;;2.55;2.38;;;16.30;99.90;;;;;;5014901;28;20181;-73
2022/06/25 03:07:11;;;;;;;3.17;2.85;;;16.30;99.90;;;;;;5013775;28;20208;-72
2022/06/25 03:09:37;;;;;;;3.15;2.95;;;16.30;99.90;;;;;;5014090;28;20174;-74
2022/06/25 03:12:03;;;;;;;3.85;3.55;;;16.30;99.90;;;;;;5031983;28;20176;-74
2022/06/25 03:14:29;;;;;;;3.83;3.60;;;16.30;99.90;;;;;;5033817;28;20203;-73
2022/06/25 03:16:54;;;;;;;4.35;4.05;;;16.30;99.90;;;;;;5016558;28;20189;-74
2022/06/25 03:19:20;;;;;;;4.57;4.28;;;16.20;99.90;;;;;;5013476;28;20264;-74
2022/06/25 03:21:46;;;;;;;4.10;3.90;;;16.20;99.90;;;;;;5018033;28;20209;-73
2022/06/25 03:24:11;;;;;;;4.57;4.35;;;16.10;99.90;;;;;;5038224;28;20571;-70
2022/06/25 03:26:37;;;;;;;4.65;4.25;;;16.10;99.90;;;;;;5029980;28;20297;-73
2022/06/25 03:29:03;;;;;;;5.32;4.90;;;16.10;99.90;;;;;;5030657;28;20691;-76
2022/06/25 03:31:29;;;;;;;5.45;4.95;;;16.10;99.90;;;;;;5023554;28;20189;-74
2022/06/25 03:33:55;;;;;;;5.30;4.90;;;16.10;99.90;;;;;;5025485;28;20227;-73
2022/06/25 03:36:21;;;;;;;5.60;5.10;;;16.20;99.90;;;;;;5040950;28;20187;-73
2022/06/25 03:38:46;;;;;;;5.93;4.68;;;16.00;99.90;;;;;;5041014;28;20219;-73
2022/06/25 03:43:56;;;;;;;5.57;5.05;;;16.00;99.90;;;;;;5018537;28;20256;-74
2022/06/25 03:46:22;;;;;;;7.15;5.85;;;16.00;99.90;;;;;;5011254;28;20193;-73
2022/06/25 03:48:48;;;;;;;5.82;5.22;;;16.00;99.90;;;;;;5012990;28;20201;-73
2022/06/25 03:51:13;;;;;;;5.95;5.45;;;15.90;99.90;;;;;;5013196;28;20258;-73
2022/06/25 03:53:39;;;;;;;6.38;5.78;;;16.00;99.90;;;;;;5013251;28;20208;-73
2022/06/25 03:56:05;;;;;;;5.85;5.45;;;15.90;99.90;;;;;;5013214;28;20624;-72
2022/06/25 03:58:31;;;;;;;5.45;4.95;;;16.00;99.90;;;;;;5013305;28;20235;-72
2022/06/25 04:00:56;;;;;;;5.20;4.80;;;16.00;99.90;;;;;;5012687;28;20559;-73
2022/06/25 04:03:22;;;;;;;4.53;4.20;;;16.10;99.90;;;;;;5012348;28;20201;-72
2022/06/25 04:05:48;;;;;;;6.28;5.30;;;16.10;99.90;;;;;;5012778;28;20546;-72
2022/06/25 04:08:13;;;;;;;4.70;4.30;;;16.30;99.90;;;;;;5013486;28;20181;-72
2022/06/25 04:10:39;;;;;;;4.30;4.03;;;16.30;99.90;;;;;;5012821;28;20250;-72
2022/06/25 04:13:05;;;;;;;5.70;5.00;;;16.30;99.90;;;;;;5012746;28;20189;-73
2022/06/25 04:15:33;;;;;;;4.28;3.97;;;16.30;99.90;;;;;;5013024;28;20177;-73
2022/06/25 04:17:58;;;;;;;5.38;4.97;;;16.30;99.90;;;;;;5011681;28;20189;-74
2022/06/25 04:20:24;;;;;;;5.32;5.03;;;16.30;99.90;;;;;;5012729;28;20197;-74
2022/06/25 04:22:49;;;;;;;4.72;4.43;;;16.20;99.90;;;;;;5030220;28;20257;-73
2022/06/25 04:25:15;;;;;;;5.93;4.68;;;16.40;99.90;;;;;;5032723;28;20173;-74
2022/06/25 04:30:25;;;;;;;5.43;5.03;;;16.40;99.90;;;;;;5032775;28;20210;-73
2022/06/25 04:32:50;;;;;;;5.85;5.35;;;16.40;99.90;;;;;;5028941;28;20196;-73
2022/06/25 04:35:16;;;;;;;5.57;5.07;;;16.40;99.90;;;;;;5035658;28;20181;-73
2022/06/25 04:37:42;;;;;;;5.32;4.93;;;16.50;99.90;;;;;;5035512;28;20260;-73
2022/06/25 04:40:08;;;;;;;4.88;4.57;;;16.60;99.90;;;;;;5043984;28;20248;-73
2022/06/25 04:42:33;;;;;;;5.65;5.18;;;16.70;99.90;;;;;;5052098;28;20188;-74
2022/06/25 04:44:59;;;;;;;6.88;4.40;;;16.70;99.90;;;;;;5048755;28;20451;-74
2022/06/25 04:47:24;;;;;;;8.70;4.10;;;16.70;99.90;;;;;;5032570;28;20701;-74
2022/06/25 04:49:51;;;;;;;5.18;4.78;;;16.70;99.90;;;;;;5023234;28;20667;-74
2022/06/25 04:52:17;;;;;;;3.90;3.70;;;16.80;99.90;;;;;;5036340;28;20226;-74
2022/06/25 04:54:42;;;;;;;5.00;4.35;;;16.80;99.90;;;;;;5041111;28;20189;-74
2022/06/25 04:57:08;;;;;;;4.70;4.25;;;16.80;99.90;;;;;;5043562;28;20606;-74
2022/06/25 04:59:33;;;;;;;4.35;4.10;;;16.80;99.90;;;;;;5053950;28;20262;-74
2022/06/25 05:01:59;;;;;;;4.93;4.53;;;16.80;99.90;;;;;;5037158;28;20212;-74
2022/06/25 05:04:25;;;;;;;4.63;4.00;;;16.80;99.90;;;;;;5036818;28;20279;-74
2022/06/25 05:06:51;;;;;;;4.28;4.03;;;16.70;99.90;;;;;;5044166;28;20172;-74
2022/06/25 05:09:17;;;;;;;4.00;3.70;;;16.60;99.90;;;;;;5038470;28;20644;-78
2022/06/25 05:11:43;;;;;;;4.13;3.80;;;16.60;99.90;;;;;;5043373;28;20234;-78
2022/06/25 05:14:09;;;;;;;5.93;4.55;;;16.60;99.90;;;;;;5036018;28;20212;-79
2022/06/25 05:16:35;;;;;;;4.78;4.47;;;16.50;99.90;;;;;;5027769;28;20180;-79
2022/06/25 05:19:00;;;;;;;4.60;4.20;;;16.50;99.90;;;;;;5027935;28;20193;-79
2022/06/25 05:21:26;;;;;;;4.72;4.43;;;16.50;99.90;;;;;;5038701;28;20216;-80
2022/06/25 05:23:52;;;;;;;5.47;4.13;;;16.50;99.90;;;;;;5039187;28;20194;-81
2022/06/25 05:26:17;;;;;;;4.43;4.10;;;16.50;99.90;;;;;;5042808;28;20180;-80
2022/06/25 05:28:43;;;;;;;4.18;3.88;;;16.50;99.90;;;;;;5029257;28;20181;-80
2022/06/25 05:31:09;;;;;;;4.45;4.05;;;16.50;99.90;;;;;;5032942;28;20197;-81
2022/06/25 05:33:34;;;;;;;4.38;4.07;;;16.50;99.90;;;;;;5027850;28;20201;-80
2022/06/25 05:36:00;;;;;;;3.65;3.20;;;16.70;99.90;;;;;;5042136;28;20276;-79
2022/06/25 05:38:26;;;;;;;3.85;3.63;;;16.90;99.90;;;;;;5049818;28;20634;-80
2022/06/25 05:40:51;;;;;;;3.85;3.53;;;17.00;99.90;;;;;;5033366;28;20193;-83
2022/06/25 05:43:17;;;;;;;4.53;4.18;;;16.90;99.90;;;;;;5029021;28;20291;-81
2022/06/25 05:45:43;;;;;;;4.05;3.63;;;17.00;99.90;;;;;;5031229;28;20195;-81
2022/06/25 05:48:08;;;;;;;3.65;3.35;;;17.20;99.90;;;;;;5031304;28;20177;-80
2022/06/25 05:50:35;;;;;;;3.65;3.35;;;17.30;99.90;;;;;;5028438;28;20178;-81
2022/06/25 05:53:01;;;;;;;4.05;2.83;;;17.40;99.90;;;;;;5038098;28;20203;-79
2022/06/25 05:55:27;;;;;;;3.78;3.47;;;17.40;99.90;;;;;;5040707;28;20252;-81
2022/06/25 05:57:53;;;;;;;2.97;2.78;;;17.80;99.90;;;;;;5038602;28;20185;-81
2022/06/25 06:00:18;;;;;;;2.92;2.72;;;18.10;99.90;;;;;;5030228;28;20286;-80
2022/06/25 06:02:44;;;;;;;3.17;2.97;;;18.10;99.90;;;;;;5025655;28;20205;-80
2022/06/25 06:05:10;;;;;;;2.78;2.15;;;18.30;99.90;;;;;;5033994;28;20173;-80
2022/06/25 06:07:36;;;;;;;2.58;2.38;;;18.40;99.90;;;;;;5030853;28;20177;-81
2022/06/25 06:10:03;;;;;;;2.58;2.40;;;18.40;99.90;;;;;;5025843;28;20180;-79
2022/06/25 06:12:28;;;;;;;2.13;2.03;;;18.30;99.90;;;;;;5029148;28;20177;-80
2022/06/25 06:14:54;;;;;;;2.95;2.70;;;18.30;99.90;;;;;;5026519;28;20173;-80
2022/06/25 06:17:20;;;;;;;1.80;1.70;;;18.30;99.90;;;;;;5025899;28;20200;-80
2022/06/25 06:19:45;;;;;;;2.50;2.40;;;18.30;99.90;;;;;;5023132;28;20177;-81
2022/06/25 06:22:11;;;;;;;2.20;2.10;;;18.40;99.90;;;;;;5016640;28;20212;-80
2022/06/25 06:24:37;;;;;;;1.88;1.77;;;18.50;99.90;;;;;;5016447;28;20190;-80
2022/06/25 06:27:02;;;;;;;4.15;2.15;;;18.50;99.90;;;;;;5032215;28;20270;-80
2022/06/25 06:29:29;;;;;;;2.20;2.10;;;18.60;99.90;;;;;;5036802;28;20169;-79
2022/06/25 06:31:55;;;;;;;1.70;1.70;;;18.70;99.90;;;;;;5036917;28;20207;-81
2022/06/25 06:34:20;;;;;;;2.53;1.85;;;18.90;99.90;;;;;;5034098;28;20197;-80
2022/06/25 06:36:46;;;;;;;2.30;2.10;;;19.00;99.90;;;;;;5019131;28;20166;-80
2022/06/25 06:39:12;;;;;;;1.90;1.80;;;19.30;99.90;;;;;;5017778;28;20185;-79
2022/06/25 06:41:37;;;;;;;2.08;1.83;;;19.60;99.90;;;;;;5032324;28;20201;-79
2022/06/25 06:44:03;;;;;;;4.13;2.00;;;19.90;99.90;;;;;;5046809;28;20631;-78
2022/06/25 06:46:29;;;;;;;3.80;1.70;;;20.30;99.90;;;;;;5033998;28;20255;-78
2022/06/25 06:48:54;;;;;;;1.80;1.70;;;20.50;99.90;;;;;;5034439;28;20695;-78
2022/06/25 06:51:20;;;;;;;2.00;1.80;;;20.70;99.90;;;;;;5040887;28;20192;-79
2022/06/25 06:53:46;;;;;;;2.05;1.48;;;20.90;99.90;;;;;;5030775;28;20210;-77
2022/06/25 06:56:11;;;;;;;2.25;1.70;;;21.10;99.90;;;;;;5034017;28;20181;-78
2022/06/25 06:58:37;;;;;;;1.67;1.63;;;21.40;99.90;;;;;;5036588;28;20652;-79
2022/06/25 07:01:03;;;;;;;2.05;1.50;;;21.50;99.90;;;;;;5023434;28;20296;-80
2022/06/25 07:03:28;;;;;;;1.52;1.40;;;21.60;99.90;;;;;;5037642;28;20744;-79
2022/06/25 07:05:54;;;;;;;1.73;1.73;;;21.60;99.90;;;;;;5023481;28;20636;-79
2022/06/25 07:08:20;;;;;;;1.40;1.40;;;21.50;99.90;;;;;;5018194;28;20256;-81
2022/06/25 07:10:46;;;;;;;1.60;1.60;;;21.70;99.90;;;;;;5026985;28;20208;-78
2022/06/25 07:13:11;;;;;;;1.60;1.50;;;21.90;99.90;;;;;;5024714;28;20204;-78
2022/06/25 07:15:37;;;;;;;1.60;1.50;;;21.90;99.90;;;;;;5023228;28;20188;-78
2022/06/25 07:18:03;;;;;;;1.60;1.60;;;21.90;99.90;;;;;;5024345;28;20212;-77
2022/06/25 07:20:28;;;;;;;1.50;1.40;;;21.80;99.90;;;;;;5042393;28;20698;-79
2022/06/25 07:22:54;;;;;;;1.55;1.50;;;21.70;99.90;;;;;;5021812;28;20716;-77
2022/06/25 07:25:20;;;;;;;1.80;1.70;;;21.70;99.90;;;;;;5029756;28;20180;-82
2022/06/25 07:27:46;;;;;;;3.15;1.90;;;21.70;99.90;;;;;;5041872;28;20651;-79
2022/06/25 07:30:13;;;;;;;1.92;1.85;;;21.60;99.90;;;;;;5035459;28;20188;-79
2022/06/25 07:32:38;;;;;;;1.92;1.83;;;21.60;99.90;;;;;;5030593;28;20197;-82
2022/06/25 07:35:04;;;;;;;1.92;1.83;;;21.70;99.90;;;;;;5023943;28;20188;-81
2022/06/25 07:37:30;;;;;;;4.28;2.10;;;21.80;99.90;;;;;;5034750;28;20181;-80
2022/06/25 07:39:56;;;;;;;2.10;2.00;;;22.00;99.90;;;;;;5041347;28;20545;-78
2022/06/25 07:42:21;;;;;;;2.67;1.98;;;22.20;99.90;;;;;;5041183;28;20228;-77
2022/06/25 07:44:47;;;;;;;1.75;1.75;;;22.50;99.90;;;;;;5029929;28;20239;-79
2022/06/25 07:47:12;;;;;;;2.97;1.70;;;22.80;99.90;;;;;;5019800;28;20166;-80
2022/06/25 07:52:22;;;;;;;1.73;1.60;;;23.20;99.90;;;;;;5026408;28;20238;-78
2022/06/25 07:54:48;;;;;;;1.80;1.70;;;23.10;99.90;;;;;;5014445;28;20648;-77
2022/06/25 07:57:13;;;;;;;2.03;1.92;;;22.80;99.90;;;;;;5014976;28;20177;-77
2022/06/25 07:59:39;;;;;;;1.83;1.73;;;22.80;99.90;;;;;;5012126;28;20220;-76
2022/06/25 08:02:05;;;;;;;1.77;1.67;;;23.00;99.90;;;;;;5028603;28;20209;-79
2022/06/25 08:04:31;;;;;;;1.20;1.20;;;23.50;99.90;;;;;;5033163;28;20192;-79
2022/06/25 08:06:56;;;;;;;1.55;1.50;;;23.90;99.90;;;;;;5031930;28;20173;-79
2022/06/25 08:09:22;;;;;;;2.50;1.30;;;24.30;99.90;;;;;;5014720;28;20264;-75
2022/06/25 08:11:48;;;;;;;1.45;1.40;;;24.60;99.90;;;;;;5012300;28;20526;-76
2022/06/25 08:14:14;;;;;;;1.55;1.50;;;24.70;99.90;;;;;;5012271;28;20256;-76
2022/06/25 08:16:40;;;;;;;4.30;1.25;;;24.70;99.90;;;;;;5012651;28;20370;-76
2022/06/25 08:19:06;;;;;;;1.77;0.98;;;24.70;99.90;;;;;;5012226;28;20561;-75
2022/06/25 08:21:32;;;;;;;2.15;1.10;;;24.70;99.90;;;;;;5012254;28;20270;-76
2022/06/25 08:23:57;;;;;;;1.00;1.00;;;24.90;99.90;;;;;;5011937;28;20726;-77
2022/06/25 08:26:23;;;;;;;1.65;1.35;;;24.90;99.90;;;;;;5018663;28;20184;-77
2022/06/25 08:28:49;;;;;;;1.60;1.48;;;24.80;99.90;;;;;;5039069;28;20267;-78
2022/06/25 08:31:15;;;;;;;2.10;1.38;;;24.90;99.90;;;;;;5031824;28;20238;-76
2022/06/25 08:33:41;;;;;;;0.98;0.98;;;25.00;99.90;;;;;;5034069;28;20192;-77
2022/06/25 08:36:07;;;;;;;0.88;0.85;;;25.40;99.90;;;;;;5033428;28;20184;-78
2022/06/25 08:38:33;;;;;;;2.05;1.35;;;25.60;99.90;;;;;;5029817;28;20173;-77
2022/06/25 08:41:00;;;;;;;1.50;1.40;;;25.90;99.90;;;;;;5050424;28;20265;-77
2022/06/25 08:43:26;;;;;;;1.20;1.10;;;25.40;99.90;;;;;;5051914;28;20202;-76
2022/06/25 08:45:55;;;;;;;0.95;0.95;;;25.30;99.90;;;;;;5024756;28;20209;-75
2022/06/25 08:48:29;;;;;;;2.38;1.30;;;25.40;99.90;;;;;;5015937;28;20174;-77
2022/06/25 08:50:55;;;;;;;0.75;0.75;;;25.60;99.90;;;;;;5015680;28;20227;-77
2022/06/25 08:53:21;;;;;;;1.40;1.30;;;25.60;99.90;;;;;;5015518;28;20238;-75
2022/06/25 08:55:48;;;;;;;1.17;1.10;;;25.60;99.90;;;;;;5016346;28;20261;-76
2022/06/25 08:58:14;;;;;;;1.45;1.35;;;25.30;99.90;;;;;;5015700;28;20343;-76
2022/06/25 09:00:42;;;;;;;0.85;0.80;;;25.20;99.90;;;;;;5024901;28;20197;-76
2022/06/25 09:03:08;;;;;;;0.80;0.80;;;25.30;99.90;;;;;;5035249;28;20199;-77
2022/06/25 09:05:42;;;;;;;1.17;1.10;;;25.40;99.90;;;;;;5031734;28;20180;-78
2022/06/25 09:08:10;;;;;;;1.90;0.93;;;25.40;99.90;;;;;;5028694;28;20238;-76
2022/06/25 09:10:37;;;;;;;2.17;1.10;;;25.60;99.90;;;;;;5016419;28;20166;-77
2022/06/25 09:13:05;;;;;;;2.03;1.08;;;25.60;99.90;;;;;;5018462;28;20225;-75
2022/06/25 09:15:38;;;;;;;1.10;1.10;;;25.80;99.90;;;;;;5018250;28;20173;-76
2022/06/25 09:18:12;;;;;;;1.30;1.20;;;26.10;99.90;;;;;;5033981;28;20188;-73
2022/06/25 09:20:55;;;;;;;1.70;1.23;;;26.20;99.90;;;;;;5031536;28;20200;-76
2022/06/25 09:23:20;;;;;;;1.30;0.85;;;26.30;99.90;;;;;;5024553;28;20189;-75
2022/06/25 09:25:58;;;;;;;0.93;0.93;;;25.90;99.90;;;;;;5028511;28;20568;-75
2022/06/25 09:28:35;;;;;;;0.98;0.90;;;25.50;99.90;;;;;;5015212;28;20158;-74
2022/06/25 09:31:02;;;;;;;0.80;0.80;;;25.30;99.90;;;;;;5014966;28;20891;-76
2022/06/25 09:33:29;;;;;;;1.52;1.08;;;25.30;99.90;;;;;;5014974;28;20201;-77
2022/06/25 09:35:55;;;;;;;0.95;0.95;;;25.20;99.90;;;;;;5034908;28;20183;-77
2022/06/25 09:38:21;;;;;;;1.35;1.00;;;25.60;99.90;;;;;;5039300;28;20647;-76
2022/06/25 09:40:55;;;;;;;1.67;0.80;;;26.30;99.90;;;;;;5035055;28;20208;-76
2022/06/25 09:43:22;;;;;;;2.40;1.02;;;27.50;99.90;;;;;;5030428;28;20227;-74
2022/06/25 09:45:51;;;;;;;0.75;0.70;;;29.70;97.30;;;;;;5035343;28;20175;-73
2022/06/25 09:48:28;;;;;;;1.52;1.00;;;30.80;95.20;;;;;;5025362;28;20260;-75
2022/06/25 09:51:10;;;;;;;0.90;0.90;;;31.50;94.40;;;;;;5039089;28;20188;-75
2022/06/25 09:53:57;;;;;;;1.15;1.00;;;32.50;86.90;;;;;;5027709;28;20207;-74
2022/06/25 09:56:27;;;;;;;0.80;0.80;;;32.50;82.50;;;;;;5033707;28;20165;-74
2022/06/25 09:58:54;;;;;;;1.90;0.73;;;31.90;81.90;;;;;;5028916;28;20175;-74
2022/06/25 10:01:23;;;;;;;1.05;0.93;;;31.30;80.20;;;;;;5042917;28;20197;-74
2022/06/25 10:03:49;;;;;;;0.80;0.80;;;30.20;83.20;;;;;;5045128;28;20230;-74
2022/06/25 10:06:25;;;;;;;1.00;1.00;;;30.00;82.70;;;;;;5054326;28;20183;-75
2022/06/25 10:08:56;;;;;;;3.15;0.75;;;29.50;86.20;;;;;;5019458;28;20176;-75
2022/06/25 10:11:26;;;;;;;0.77;0.77;;;29.70;86.10;;;;;;5023414;28;20181;-74
2022/06/25 10:13:53;;;;;;;1.00;0.88;;;31.90;83.70;;;;;;5013019;28;20224;-75
2022/06/25 10:16:20;;;;;;;0.75;0.75;;;33.00;73.90;;;;;;5014301;28;20177;-75
2022/06/25 10:18:48;;;;;;;0.70;0.70;;;32.20;74.90;;;;;;5013992;28;20665;-74
2022/06/25 10:21:13;;;;;;;1.98;0.68;;;31.50;75.10;;;;;;5024319;28;20211;-75
2022/06/25 10:23:40;;;;;;;0.85;0.85;;;32.30;76.80;;;;;;5030204;28;20184;-74
2022/06/25 10:26:09;;;;;;;0.70;0.68;;;33.50;70.90;;;;;;5021712;28;20200;-74
2022/06/25 10:28:35;;;;;;;0.73;0.73;;;35.70;63.00;;;;;;5014020;28;20177;-76
2022/06/25 10:31:06;;;;;;;0.60;0.60;;;37.90;61.00;;;;;;5021690;28;20658;-76
2022/06/25 10:33:57;;;;;;;0.80;0.80;;;39.20;53.80;;;;;;5019950;28;20617;-76
2022/06/25 10:36:42;;;;;;;1.48;0.63;;;40.80;48.90;;;;;;5025850;28;20188;-75
2022/06/25 10:39:27;;;;;;;0.63;0.57;;;41.90;47.00;;;;;;5023980;28;20635;-75
2022/06/25 10:45:00;;;;;;;0.50;0.50;;;41.20;46.00;;;;;;5027598;28;20237;-72
2022/06/25 10:47:54;;;;;;;0.60;0.60;;;38.70;49.00;;;;;;5031879;28;20176;-72
2022/06/25 10:50:22;;;;;;;2.08;1.25;;;36.30;52.70;;;;;;5011318;28;20263;-72
2022/06/25 10:53:03;;;;;;;0.77;0.77;;;34.50;56.70;;;;;;5013285;28;20196;-74
2022/06/25 10:55:39;;;;;;;0.85;0.85;;;32.80;60.30;;;;;;5019157;28;20165;-73
2022/06/25 10:58:23;;;;;;;1.00;0.68;;;31.20;65.20;;;;;;5027749;28;20626;-74
2022/06/25 11:00:52;;;;;;;1.10;0.88;;;30.20;66.50;;;;;;5024701;28;20694;-74
2022/06/25 11:03:38;;;;;;;0.63;0.47;;;29.60;69.10;;;;;;5022365;28;20196;-75
2022/06/25 11:06:24;;;;;;;0.70;0.70;;;29.10;70.30;;;;;;5018021;28;20184;-76
2022/06/25 11:08:51;;;;;;;0.98;0.98;;;28.70;72.00;;;;;;5036222;28;20250;-76
2022/06/25 11:11:31;;;;;;;1.10;1.00;;;28.40;75.20;;;;;;5043648;28;20206;-74
2022/06/25 11:13:58;;;;;;;2.10;0.90;;;28.20;76.70;;;;;;5036092;28;20773;-74
2022/06/25 11:16:24;;;;;;;2.78;1.15;;;28.00;78.20;;;;;;5018645;28;20291;-74
2022/06/25 11:18:53;;;;;;;0.88;0.88;;;28.20;79.00;;;;;;5013136;28;20188;-74
2022/06/25 11:21:26;;;;;;;0.75;0.75;;;29.30;81.40;;;;;;5015663;28;20227;-75
2022/06/25 11:23:52;;;;;;;0.60;0.60;;;32.10;71.60;;;;;;5028115;28;20218;-75
2022/06/25 11:29:02;;;;;;;1.15;0.80;;;37.00;56.50;;;;;;5028606;28;20318;-75
2022/06/25 11:31:28;;;;;;;0.60;0.60;;;39.00;51.90;;;;;;5027259;28;20279;-75
2022/06/25 11:33:54;;;;;;;0.50;0.50;;;40.00;48.80;;;;;;5021787;28;20549;-75
2022/06/25 11:36:20;;;;;;;0.63;0.63;;;39.20;48.90;;;;;;5024509;28;20422;-74
2022/06/25 11:38:51;;;;;;;1.38;1.02;;;37.90;48.50;;;;;;5040123;28;20670;-75
2022/06/25 11:41:20;;;;;;;1.02;0.57;;;35.90;51.60;;;;;;5031495;28;20211;-73
2022/06/25 11:43:46;;;;;;;2.83;0.70;;;35.40;53.90;;;;;;5020788;28;20203;-74
2022/06/25 11:46:18;;;;;;;2.08;0.70;;;36.70;52.40;;;;;;5022864;28;20168;-75
2022/06/25 11:48:46;;;;;;;0.88;0.82;;;37.70;50.30;;;;;;5020035;28;20183;-74
2022/06/25 11:51:13;;;;;;;1.45;0.82;;;38.80;49.00;;;;;;5015027;28;20176;-74
2022/06/25 11:53:40;;;;;;;0.70;0.70;;;39.40;47.80;;;;;;5019056;28;20199;-72
2022/06/25 11:56:07;;;;;;;1.65;0.60;;;39.00;48.10;;;;;;5025951;28;20211;-72
2022/06/25 11:58:36;;;;;;;1.33;1.23;;;38.50;47.80;;;;;;5017645;28;20188;-72
2022/06/25 12:01:04;;;;;;;1.27;0.80;;;38.50;51.20;;;;;;5024258;28;20215;-72
2022/06/25 12:03:31;;;;;;;1.48;0.80;;;38.10;49.70;;;;;;5021044;28;20215;-72
2022/06/25 12:05:58;;;;;;;1.33;1.15;;;37.80;51.00;;;;;;5026533;28;20657;-71
2022/06/25 12:08:25;;;;;;;2.10;0.88;;;36.80;52.50;;;;;;5022952;28;20192;-72
2022/06/25 12:10:52;;;;;;;2.05;0.65;;;35.70;52.80;;;;;;5032744;28;20179;-72
2022/06/25 12:13:18;;;;;;;0.80;0.80;;;34.70;55.40;;;;;;5030226;28;20206;-71
2022/06/25 12:15:45;;;;;;;0.80;0.80;;;33.70;57.30;;;;;;5020137;28;20259;-72
2022/06/25 12:18:10;;;;;;;2.92;1.20;;;33.10;57.60;;;;;;5018387;28;20746;-74
2022/06/25 12:20:54;;;;;;;0.90;0.90;;;32.60;58.90;;;;;;5019928;28;20287;-74
2022/06/25 12:23:20;;;;;;;0.93;0.93;;;31.80;60.60;;;;;;5017648;28;20234;-72
2022/06/25 12:25:48;;;;;;;1.55;1.55;;;31.50;62.10;;;;;;5021390;28;20664;-72
2022/06/25 12:28:13;;;;;;;0.80;0.80;;;31.30;63.80;;;;;;5022902;28;20642;-72
2022/06/25 12:30:39;;;;;;;0.70;0.70;;;30.90;64.20;;;;;;5026657;28;20219;-72
2022/06/25 12:33:13;;;;;;;1.35;0.85;;;30.40;65.00;;;;;;5019867;28;20200;-72
2022/06/25 12:35:45;;;;;;;1.13;1.00;;;30.60;65.00;;;;;;5024909;28;20287;-71
2022/06/25 12:38:13;;;;;;;1.15;0.60;;;30.80;64.30;;;;;;5018323;28;20188;-71
2022/06/25 12:40:44;;;;;;;1.05;0.80;;;30.80;62.90;;;;;;5026324;28;20706;-72
2022/06/25 12:43:11;;;;;;;1.38;0.90;;;30.70;65.10;;;;;;5018429;28;20291;-71
2022/06/25 12:45:39;;;;;;;1.70;1.00;;;30.80;62.80;;;;;;5024136;28;20644;-72
2022/06/25 12:48:07;;;;;;;1.55;0.90;;;31.00;63.10;;;;;;5023437;28;20196;-71
2022/06/25 12:50:34;;;;;;;1.38;1.15;;;31.40;61.40;;;;;;5037693;28;20177;-71
2022/06/25 12:53:12;;;;;;;0.80;0.80;;;31.30;61.10;;;;;;5017417;28;20196;-71
2022/06/25 12:55:39;;;;;;;1.02;0.80;;;31.30;60.90;;;;;;5028470;28;20188;-71
2022/06/25 12:58:08;;;;;;;1.75;0.68;;;31.30;62.70;;;;;;5028931;28;20176;-71
2022/06/25 13:00:37;;;;;;;1.08;0.80;;;31.10;63.50;;;;;;5023104;28;20568;-70
2022/06/25 13:03:05;;;;;;;1.60;0.90;;;30.60;63.60;;;;;;5011011;28;20200;-70
2022/06/25 13:05:31;;;;;;;1.00;1.00;;;30.20;64.50;;;;;;5011391;28;20295;-71